sensor_id;sensor_type;location;lat;lon;timestamp;pressure;altitude;pressure_sealevel;temperature;humidity
49459;BME280;35354;51.296;16.924;2022-08-25T00:01:16;99964.09;;;19.69;100.00
49459;BME280;35354;51.296;16.924;2022-08-25T00:03:43;99957.13;;;19.68;100.00
49459;BME280;35354;51.296;16.924;2022-08-25T00:06:10;99973.69;;;19.71;100.00
49459;BME280;35354;51.296;16.924;2022-08-25T00:08:36;99964.31;;;19.66;100.00
49459;BME280;35354;51.296;16.924;2022-08-25T00:11:05;99970.06;;;19.72;100.00
49459;BME280;35354;51.296;16.924;2022-08-25T00:13:31;99959.16;;;19.65;100.00
49459;BME280;35354;51.296;16.924;2022-08-25T00:15:57;99968.16;;;19.62;100.00
49459;BME280;35354;51.296;16.924;2022-08-25T00:18:22;99948.56;;;19.54;100.00
49459;BME280;35354;51.296;16.924;2022-08-25T00:20:48;99957.81;;;19.59;100.00
49459;BME280;35354;51.296;16.924;2022-08-25T00:23:14;99959.03;;;19.55;100.00
49459;BME280;35354;51.296;16.924;2022-08-25T00:25:39;99956.38;;;19.55;100.00
49459;BME280;35354;51.296;16.924;2022-08-25T00:28:04;99966.97;;;19.55;100.00
49459;BME280;35354;51.296;16.924;2022-08-25T00:30:30;99944.16;;;19.43;100.00
49459;BME280;35354;51.296;16.924;2022-08-25T00:32:55;99959.28;;;19.52;100.00
49459;BME280;35354;51.296;16.924;2022-08-25T00:35:21;99950.38;;;19.42;100.00
49459;BME280;35354;51.296;16.924;2022-08-25T00:37:47;99946.19;;;19.39;100.00
49459;BME280;35354;51.296;16.924;2022-08-25T00:40:12;99947.72;;;19.42;100.00
49459;BME280;35354;51.296;16.924;2022-08-25T00:42:37;99939.00;;;19.30;100.00
49459;BME280;35354;51.296;16.924;2022-08-25T00:45:06;99949.66;;;19.29;100.00
49459;BME280;35354;51.296;16.924;2022-08-25T00:47:32;99955.19;;;19.26;100.00
49459;BME280;35354;51.296;16.924;2022-08-25T00:50:00;99944.47;;;19.16;100.00
49459;BME280;35354;51.296;16.924;2022-08-25T00:52:31;99944.97;;;19.10;100.00
49459;BME280;35354;51.296;16.924;2022-08-25T00:55:01;99953.00;;;19.08;100.00
49459;BME280;35354;51.296;16.924;2022-08-25T00:57:39;99947.22;;;19.03;100.00
49459;BME280;35354;51.296;16.924;2022-08-25T01:00:16;99959.97;;;19.09;100.00
49459;BME280;35354;51.296;16.924;2022-08-25T01:02:43;99957.34;;;19.09;100.00
49459;BME280;35354;51.296;16.924;2022-08-25T01:05:09;99965.25;;;19.09;100.00
49459;BME280;35354;51.296;16.924;2022-08-25T01:07:35;99957.78;;;19.03;100.00
49459;BME280;35354;51.296;16.924;2022-08-25T01:10:03;99955.06;;;19.05;100.00
49459;BME280;35354;51.296;16.924;2022-08-25T01:12:28;99954.44;;;19.01;100.00
49459;BME280;35354;51.296;16.924;2022-08-25T01:14:55;99965.47;;;19.06;100.00
49459;BME280;35354;51.296;16.924;2022-08-25T01:17:21;99963.91;;;19.04;100.00
49459;BME280;35354;51.296;16.924;2022-08-25T01:19:46;99965.94;;;19.00;100.00
49459;BME280;35354;51.296;16.924;2022-08-25T01:22:12;99971.97;;;19.02;100.00
49459;BME280;35354;51.296;16.924;2022-08-25T01:25:00;99962.09;;;19.04;100.00
49459;BME280;35354;51.296;16.924;2022-08-25T01:27:28;99952.88;;;18.99;100.00
49459;BME280;35354;51.296;16.924;2022-08-25T01:29:53;99952.03;;;18.98;100.00
49459;BME280;35354;51.296;16.924;2022-08-25T01:32:19;99963.69;;;19.07;100.00
49459;BME280;35354;51.296;16.924;2022-08-25T01:34:45;99946.88;;;19.08;100.00
49459;BME280;35354;51.296;16.924;2022-08-25T01:37:12;99950.72;;;19.15;100.00
49459;BME280;35354;51.296;16.924;2022-08-25T01:39:39;99955.19;;;19.14;100.00
49459;BME280;35354;51.296;16.924;2022-08-25T01:42:18;99956.50;;;19.20;100.00
49459;BME280;35354;51.296;16.924;2022-08-25T01:44:45;99960.94;;;19.19;100.00
49459;BME280;35354;51.296;16.924;2022-08-25T01:47:11;99954.69;;;19.20;100.00
49459;BME280;35354;51.296;16.924;2022-08-25T01:49:37;99958.91;;;19.23;100.00
49459;BME280;35354;51.296;16.924;2022-08-25T01:52:20;99948.09;;;19.15;100.00
49459;BME280;35354;51.296;16.924;2022-08-25T01:54:48;99967.88;;;19.20;100.00
49459;BME280;35354;51.296;16.924;2022-08-25T01:57:13;99959.25;;;19.18;100.00
49459;BME280;35354;51.296;16.924;2022-08-25T01:59:39;99964.63;;;19.17;100.00
49459;BME280;35354;51.296;16.924;2022-08-25T02:02:05;99969.81;;;19.18;100.00
49459;BME280;35354;51.296;16.924;2022-08-25T02:04:31;99965.50;;;19.17;100.00
49459;BME280;35354;51.296;16.924;2022-08-25T02:07:01;99971.03;;;19.14;100.00
49459;BME280;35354;51.296;16.924;2022-08-25T02:09:28;99974.72;;;19.12;100.00
49459;BME280;35354;51.296;16.924;2022-08-25T02:11:53;99963.91;;;19.04;100.00
49459;BME280;35354;51.296;16.924;2022-08-25T02:14:19;99971.59;;;19.07;100.00
49459;BME280;35354;51.296;16.924;2022-08-25T02:16:47;99960.56;;;19.02;100.00
49459;BME280;35354;51.296;16.924;2022-08-25T02:19:14;99960.44;;;19.03;100.00
49459;BME280;35354;51.296;16.924;2022-08-25T02:21:40;99962.59;;;18.98;100.00
49459;BME280;35354;51.296;16.924;2022-08-25T02:24:06;99957.31;;;18.98;100.00
49459;BME280;35354;51.296;16.924;2022-08-25T02:26:32;99952.50;;;18.92;100.00
49459;BME280;35354;51.296;16.924;2022-08-25T02:28:57;99948.91;;;18.93;100.00
49459;BME280;35354;51.296;16.924;2022-08-25T02:31:24;99941.34;;;18.88;100.00
49459;BME280;35354;51.296;16.924;2022-08-25T02:33:50;99941.34;;;18.88;100.00
49459;BME280;35354;51.296;16.924;2022-08-25T02:36:17;99926.09;;;18.81;100.00
49459;BME280;35354;51.296;16.924;2022-08-25T02:38:43;99940.50;;;18.88;100.00
49459;BME280;35354;51.296;16.924;2022-08-25T02:41:12;99945.53;;;18.91;100.00
49459;BME280;35354;51.296;16.924;2022-08-25T02:43:39;99945.53;;;18.91;100.00
49459;BME280;35354;51.296;16.924;2022-08-25T02:46:05;99936.91;;;18.89;100.00
49459;BME280;35354;51.296;16.924;2022-08-25T02:48:31;99934.63;;;18.84;100.00
49459;BME280;35354;51.296;16.924;2022-08-25T02:50:59;99936.91;;;18.89;100.00
49459;BME280;35354;51.296;16.924;2022-08-25T02:53:26;99913.25;;;18.76;100.00
49459;BME280;35354;51.296;16.924;2022-08-25T02:55:52;99932.81;;;18.85;100.00
49459;BME280;35354;51.296;16.924;2022-08-25T02:58:18;99920.69;;;18.82;100.00
49459;BME280;35354;51.296;16.924;2022-08-25T03:00:44;99926.22;;;18.90;100.00
49459;BME280;35354;51.296;16.924;2022-08-25T03:03:10;99924.69;;;18.88;100.00
49459;BME280;35354;51.296;16.924;2022-08-25T03:05:36;99929.00;;;18.89;100.00
49459;BME280;35354;51.296;16.924;2022-08-25T03:08:03;99935.94;;;18.90;100.00
49459;BME280;35354;51.296;16.924;2022-08-25T03:10:28;99917.22;;;18.82;100.00
49459;BME280;35354;51.296;16.924;2022-08-25T03:12:54;99927.41;;;18.86;100.00
49459;BME280;35354;51.296;16.924;2022-08-25T03:15:20;99931.25;;;18.82;100.00
49459;BME280;35354;51.296;16.924;2022-08-25T03:17:46;99932.22;;;18.81;100.00
49459;BME280;35354;51.296;16.924;2022-08-25T03:20:14;99938.09;;;18.85;100.00
49459;BME280;35354;51.296;16.924;2022-08-25T03:22:39;99927.16;;;18.78;100.00
49459;BME280;35354;51.296;16.924;2022-08-25T03:25:05;99915.75;;;18.78;100.00
49459;BME280;35354;51.296;16.924;2022-08-25T03:27:50;99924.28;;;18.81;100.00
49459;BME280;35354;51.296;16.924;2022-08-25T03:30:16;99923.69;;;18.78;100.00
49459;BME280;35354;51.296;16.924;2022-08-25T03:32:42;99918.63;;;18.75;100.00
49459;BME280;35354;51.296;16.924;2022-08-25T03:35:08;99918.53;;;18.76;100.00
49459;BME280;35354;51.296;16.924;2022-08-25T03:37:34;99924.66;;;18.77;100.00
49459;BME280;35354;51.296;16.924;2022-08-25T03:40:02;99919.72;;;18.72;100.00
49459;BME280;35354;51.296;16.924;2022-08-25T03:42:28;99915.50;;;18.69;100.00
49459;BME280;35354;51.296;16.924;2022-08-25T03:44:53;99916.44;;;18.68;100.00
49459;BME280;35354;51.296;16.924;2022-08-25T03:47:19;99922.47;;;18.70;100.00
49459;BME280;35354;51.296;16.924;2022-08-25T03:49:44;99925.97;;;18.71;100.00
49459;BME280;35354;51.296;16.924;2022-08-25T03:52:10;99921.53;;;18.72;100.00
49459;BME280;35354;51.296;16.924;2022-08-25T03:54:35;99924.72;;;18.64;100.00
49459;BME280;35354;51.296;16.924;2022-08-25T03:57:01;99927.81;;;18.69;100.00
49459;BME280;35354;51.296;16.924;2022-08-25T03:59:26;99921.94;;;18.65;100.00
49459;BME280;35354;51.296;16.924;2022-08-25T04:01:52;99942.63;;;18.72;100.00
49459;BME280;35354;51.296;16.924;2022-08-25T04:04:18;99933.88;;;18.71;100.00
49459;BME280;35354;51.296;16.924;2022-08-25T04:06:44;99933.00;;;18.70;100.00
49459;BME280;35354;51.296;16.924;2022-08-25T04:09:10;99932.50;;;18.65;100.00
49459;BME280;35354;51.296;16.924;2022-08-25T04:11:35;99926.38;;;18.65;100.00
49459;BME280;35354;51.296;16.924;2022-08-25T04:14:02;99940.59;;;18.75;100.00
49459;BME280;35354;51.296;16.924;2022-08-25T04:16:30;99948.25;;;18.78;100.00
49459;BME280;35354;51.296;16.924;2022-08-25T04:18:57;99940.34;;;18.78;100.00
49459;BME280;35354;51.296;16.924;2022-08-25T04:21:24;99926.16;;;18.68;100.00
49459;BME280;35354;51.296;16.924;2022-08-25T04:23:51;99925.84;;;18.73;100.00
49459;BME280;35354;51.296;16.924;2022-08-25T04:26:20;99939.66;;;18.87;100.00
49459;BME280;35354;51.296;16.924;2022-08-25T04:28:46;99947.25;;;18.92;100.00
49459;BME280;35354;51.296;16.924;2022-08-25T04:31:14;99936.56;;;18.93;100.00
49459;BME280;35354;51.296;16.924;2022-08-25T04:33:41;99927.91;;;18.91;100.00
49459;BME280;35354;51.296;16.924;2022-08-25T04:36:07;99929.34;;;18.95;100.00
49459;BME280;35354;51.296;16.924;2022-08-25T04:38:35;99925.41;;;19.01;100.00
49459;BME280;35354;51.296;16.924;2022-08-25T04:41:03;99935.72;;;19.04;100.00
49459;BME280;35354;51.296;16.924;2022-08-25T04:43:30;99922.88;;;19.00;100.00
49459;BME280;35354;51.296;16.924;2022-08-25T04:45:56;99938.13;;;19.07;100.00
49459;BME280;35354;51.296;16.924;2022-08-25T04:48:22;99914.09;;;18.99;100.00
49459;BME280;35354;51.296;16.924;2022-08-25T04:50:48;99926.00;;;19.05;100.00
49459;BME280;35354;51.296;16.924;2022-08-25T04:53:14;99939.94;;;19.18;100.00
49459;BME280;35354;51.296;16.924;2022-08-25T04:55:45;99929.47;;;19.16;100.00
49459;BME280;35354;51.296;16.924;2022-08-25T04:58:12;99929.13;;;19.32;100.00
49459;BME280;35354;51.296;16.924;2022-08-25T05:00:38;99929.13;;;19.43;100.00
49459;BME280;35354;51.296;16.924;2022-08-25T05:03:05;99935.84;;;19.70;100.00
49459;BME280;35354;51.296;16.924;2022-08-25T05:05:31;99927.03;;;19.92;100.00
49459;BME280;35354;51.296;16.924;2022-08-25T05:07:57;99923.00;;;20.09;100.00
49459;BME280;35354;51.296;16.924;2022-08-25T05:10:23;99922.97;;;20.20;100.00
49459;BME280;35354;51.296;16.924;2022-08-25T05:12:48;99924.53;;;20.23;100.00
49459;BME280;35354;51.296;16.924;2022-08-25T05:15:14;99911.13;;;20.14;100.00
49459;BME280;35354;51.296;16.924;2022-08-25T05:17:58;99925.94;;;20.27;100.00
49459;BME280;35354;51.296;16.924;2022-08-25T05:20:24;99916.44;;;20.35;100.00
49459;BME280;35354;51.296;16.924;2022-08-25T05:22:49;99916.59;;;20.43;100.00
49459;BME280;35354;51.296;16.924;2022-08-25T05:25:15;99907.13;;;20.41;100.00
49459;BME280;35354;51.296;16.924;2022-08-25T05:27:41;99910.66;;;20.62;100.00
49459;BME280;35354;51.296;16.924;2022-08-25T05:30:08;99925.09;;;21.00;100.00
49459;BME280;35354;51.296;16.924;2022-08-25T05:32:34;99920.19;;;21.26;100.00
49459;BME280;35354;51.296;16.924;2022-08-25T05:35:00;99924.25;;;21.61;100.00
49459;BME280;35354;51.296;16.924;2022-08-25T05:37:25;99911.63;;;21.93;100.00
49459;BME280;35354;51.296;16.924;2022-08-25T05:39:50;99910.56;;;22.25;100.00
49459;BME280;35354;51.296;16.924;2022-08-25T05:42:16;99919.44;;;22.73;100.00
49459;BME280;35354;51.296;16.924;2022-08-25T05:44:41;99919.56;;;23.55;100.00
49459;BME280;35354;51.296;16.924;2022-08-25T05:47:06;99910.41;;;24.31;100.00
49459;BME280;35354;51.296;16.924;2022-08-25T05:49:32;99912.75;;;24.52;100.00
49459;BME280;35354;51.296;16.924;2022-08-25T05:51:57;99922.19;;;24.64;100.00
49459;BME280;35354;51.296;16.924;2022-08-25T05:54:23;99919.09;;;24.77;100.00
49459;BME280;35354;51.296;16.924;2022-08-25T05:56:48;99915.41;;;24.70;100.00
49459;BME280;35354;51.296;16.924;2022-08-25T05:59:14;99922.03;;;24.92;100.00
49459;BME280;35354;51.296;16.924;2022-08-25T06:01:39;99904.72;;;25.56;100.00
49459;BME280;35354;51.296;16.924;2022-08-25T06:04:23;99913.50;;;25.91;98.20
49459;BME280;35354;51.296;16.924;2022-08-25T06:06:49;99924.16;;;25.82;98.76
49459;BME280;35354;51.296;16.924;2022-08-25T06:09:19;99918.75;;;25.66;99.42
49459;BME280;35354;51.296;16.924;2022-08-25T06:11:46;99926.09;;;25.64;98.37
49459;BME280;35354;51.296;16.924;2022-08-25T06:14:12;99925.41;;;25.54;98.48
49459;BME280;35354;51.296;16.924;2022-08-25T06:16:38;99912.59;;;25.74;97.49
49459;BME280;35354;51.296;16.924;2022-08-25T06:19:05;99931.09;;;26.26;94.74
49459;BME280;35354;51.296;16.924;2022-08-25T06:21:30;99925.75;;;26.18;94.66
49459;BME280;35354;51.296;16.924;2022-08-25T06:23:56;99931.38;;;25.98;95.57
49459;BME280;35354;51.296;16.924;2022-08-25T06:26:21;99936.69;;;25.90;95.63
49459;BME280;35354;51.296;16.924;2022-08-25T06:28:48;99921.38;;;25.50;95.34
49459;BME280;35354;51.296;16.924;2022-08-25T06:31:14;99928.63;;;24.79;98.02
49459;BME280;35354;51.296;16.924;2022-08-25T06:33:40;99934.69;;;24.46;100.00
49459;BME280;35354;51.296;16.924;2022-08-25T06:36:05;99943.56;;;24.01;100.00
49459;BME280;35354;51.296;16.924;2022-08-25T06:38:31;99939.63;;;23.50;100.00
49459;BME280;35354;51.296;16.924;2022-08-25T06:40:57;99950.13;;;23.14;100.00
49459;BME280;35354;51.296;16.924;2022-08-25T06:43:22;99947.78;;;22.82;100.00
49459;BME280;35354;51.296;16.924;2022-08-25T06:45:48;99945.00;;;22.54;100.00
49459;BME280;35354;51.296;16.924;2022-08-25T06:48:14;99944.75;;;22.48;100.00
49459;BME280;35354;51.296;16.924;2022-08-25T06:50:40;99944.50;;;22.51;100.00
49459;BME280;35354;51.296;16.924;2022-08-25T06:53:06;99948.81;;;22.32;100.00
49459;BME280;35354;51.296;16.924;2022-08-25T06:55:32;99944.34;;;22.23;100.00
49459;BME280;35354;51.296;16.924;2022-08-25T06:58:17;99943.19;;;22.06;100.00
49459;BME280;35354;51.296;16.924;2022-08-25T07:00:43;99951.13;;;21.97;100.00
49459;BME280;35354;51.296;16.924;2022-08-25T07:03:08;99956.69;;;21.84;100.00
49459;BME280;35354;51.296;16.924;2022-08-25T07:05:33;99958.34;;;21.75;100.00
49459;BME280;35354;51.296;16.924;2022-08-25T07:07:59;99956.94;;;21.71;100.00
49459;BME280;35354;51.296;16.924;2022-08-25T07:10:24;99954.09;;;21.53;100.00
49459;BME280;35354;51.296;16.924;2022-08-25T07:12:50;99961.47;;;21.50;100.00
49459;BME280;35354;51.296;16.924;2022-08-25T07:15:15;99974.25;;;21.45;100.00
49459;BME280;35354;51.296;16.924;2022-08-25T07:17:41;99958.66;;;21.41;100.00
49459;BME280;35354;51.296;16.924;2022-08-25T07:20:06;99955.88;;;21.53;100.00
49459;BME280;35354;51.296;16.924;2022-08-25T07:22:32;99973.06;;;21.58;100.00
49459;BME280;35354;51.296;16.924;2022-08-25T07:24:57;99975.16;;;21.55;100.00
49459;BME280;35354;51.296;16.924;2022-08-25T07:27:23;99967.22;;;21.64;100.00
49459;BME280;35354;51.296;16.924;2022-08-25T07:29:49;99956.75;;;21.63;100.00
49459;BME280;35354;51.296;16.924;2022-08-25T07:32:15;99958.03;;;21.68;100.00
49459;BME280;35354;51.296;16.924;2022-08-25T07:34:40;99960.69;;;21.78;100.00
49459;BME280;35354;51.296;16.924;2022-08-25T07:37:24;99973.72;;;21.91;100.00
49459;BME280;35354;51.296;16.924;2022-08-25T07:39:49;99963.66;;;21.85;100.00
49459;BME280;35354;51.296;16.924;2022-08-25T07:42:15;99972.59;;;21.93;100.00
49459;BME280;35354;51.296;16.924;2022-08-25T07:44:40;99972.34;;;21.87;100.00
49459;BME280;35354;51.296;16.924;2022-08-25T07:47:06;99986.69;;;21.94;100.00
49459;BME280;35354;51.296;16.924;2022-08-25T07:49:31;99969.94;;;21.84;100.00
49459;BME280;35354;51.296;16.924;2022-08-25T07:51:57;99967.81;;;21.78;100.00
49459;BME280;35354;51.296;16.924;2022-08-25T07:54:22;99976.59;;;21.68;100.00
49459;BME280;35354;51.296;16.924;2022-08-25T07:56:48;99979.22;;;21.59;100.00
49459;BME280;35354;51.296;16.924;2022-08-25T07:59:14;99977.56;;;21.67;100.00
49459;BME280;35354;51.296;16.924;2022-08-25T08:01:39;99971.00;;;21.62;100.00
49459;BME280;35354;51.296;16.924;2022-08-25T08:04:04;99974.78;;;21.69;100.00
49459;BME280;35354;51.296;16.924;2022-08-25T08:06:30;99955.63;;;21.65;100.00
49459;BME280;35354;51.296;16.924;2022-08-25T08:08:59;99965.88;;;21.80;100.00
49459;BME280;35354;51.296;16.924;2022-08-25T08:11:29;99977.25;;;22.11;100.00
49459;BME280;35354;51.296;16.924;2022-08-25T08:13:57;99988.91;;;22.29;100.00
49459;BME280;35354;51.296;16.924;2022-08-25T08:16:26;99974.91;;;22.27;100.00
49459;BME280;35354;51.296;16.924;2022-08-25T08:18:51;99980.94;;;22.39;100.00
49459;BME280;35354;51.296;16.924;2022-08-25T08:21:20;99982.06;;;22.56;100.00
49459;BME280;35354;51.296;16.924;2022-08-25T08:23:47;99980.50;;;22.92;100.00
49459;BME280;35354;51.296;16.924;2022-08-25T08:26:13;99984.25;;;23.09;100.00
49459;BME280;35354;51.296;16.924;2022-08-25T08:28:39;99987.34;;;22.85;100.00
49459;BME280;35354;51.296;16.924;2022-08-25T08:31:04;99974.09;;;22.65;100.00
49459;BME280;35354;51.296;16.924;2022-08-25T08:33:29;99985.25;;;22.69;100.00
49459;BME280;35354;51.296;16.924;2022-08-25T08:36:07;99978.56;;;22.94;100.00
49459;BME280;35354;51.296;16.924;2022-08-25T08:38:34;99983.09;;;23.31;100.00
49459;BME280;35354;51.296;16.924;2022-08-25T08:44:20;99981.78;;;24.45;100.00
49459;BME280;35354;51.296;16.924;2022-08-25T08:52:43;99962.78;;;24.84;100.00
49459;BME280;35354;51.296;16.924;2022-08-25T08:58:02;99965.91;;;24.79;100.00
49459;BME280;35354;51.296;16.924;2022-08-25T09:00:30;99953.53;;;24.70;100.00
49459;BME280;35354;51.296;16.924;2022-08-25T09:03:09;99961.72;;;24.77;100.00
49459;BME280;35354;51.296;16.924;2022-08-25T09:05:49;99960.22;;;24.74;100.00
49459;BME280;35354;51.296;16.924;2022-08-25T09:08:15;99958.22;;;24.76;100.00
49459;BME280;35354;51.296;16.924;2022-08-25T09:11:08;99962.84;;;24.92;100.00
49459;BME280;35354;51.296;16.924;2022-08-25T09:14:03;99963.16;;;24.89;100.00
49459;BME280;35354;51.296;16.924;2022-08-25T09:28:00;99948.25;;;25.64;100.00
49459;BME280;35354;51.296;16.924;2022-08-25T09:30:38;99934.44;;;25.69;97.62
49459;BME280;35354;51.296;16.924;2022-08-25T09:33:07;99940.44;;;25.71;96.55
49459;BME280;35354;51.296;16.924;2022-08-25T09:35:38;99940.66;;;25.78;95.87
49459;BME280;35354;51.296;16.924;2022-08-25T09:38:09;99926.00;;;25.82;96.93
49459;BME280;35354;51.296;16.924;2022-08-25T09:40:44;99929.00;;;25.87;97.59
49459;BME280;35354;51.296;16.924;2022-08-25T09:43:34;99936.88;;;25.88;96.57
49459;BME280;35354;51.296;16.924;2022-08-25T09:48:49;99925.84;;;26.00;90.80
49459;BME280;35354;51.296;16.924;2022-08-25T09:51:19;99940.56;;;25.96;88.90
49459;BME280;35354;51.296;16.924;2022-08-25T09:54:14;99929.53;;;26.07;88.55
49459;BME280;35354;51.296;16.924;2022-08-25T09:56:54;99911.56;;;26.17;88.23
49459;BME280;35354;51.296;16.924;2022-08-25T09:59:24;99917.53;;;26.11;85.53
49459;BME280;35354;51.296;16.924;2022-08-25T10:01:54;99905.19;;;26.10;87.34
49459;BME280;35354;51.296;16.924;2022-08-25T10:04:34;99899.19;;;26.16;86.85
49459;BME280;35354;51.296;16.924;2022-08-25T10:07:25;99912.03;;;26.21;86.07
49459;BME280;35354;51.296;16.924;2022-08-25T10:09:56;99915.22;;;26.24;87.72
49459;BME280;35354;51.296;16.924;2022-08-25T10:12:37;99908.25;;;26.48;89.12
49459;BME280;35354;51.296;16.924;2022-08-25T10:15:17;99898.41;;;26.48;86.49
49459;BME280;35354;51.296;16.924;2022-08-25T10:17:44;99909.41;;;26.53;86.29
49459;BME280;35354;51.296;16.924;2022-08-25T10:22:36;99898.72;;;26.53;86.60
49459;BME280;35354;51.296;16.924;2022-08-25T10:25:03;99893.03;;;26.65;87.03
49459;BME280;35354;51.296;16.924;2022-08-25T10:31:07;99891.31;;;26.88;85.81
49459;BME280;35354;51.296;16.924;2022-08-25T10:36:42;99903.50;;;26.91;85.21
49459;BME280;35354;51.296;16.924;2022-08-25T10:39:20;99897.03;;;26.69;85.17
49459;BME280;35354;51.296;16.924;2022-08-25T10:42:01;99896.06;;;26.45;84.71
49459;BME280;35354;51.296;16.924;2022-08-25T10:44:41;99866.00;;;26.27;86.86
49459;BME280;35354;51.296;16.924;2022-08-25T10:47:50;99882.84;;;26.44;87.62
49459;BME280;35354;51.296;16.924;2022-08-25T10:50:40;99871.50;;;26.25;87.72
49459;BME280;35354;51.296;16.924;2022-08-25T10:53:20;99876.81;;;26.33;89.04
49459;BME280;35354;51.296;16.924;2022-08-25T10:56:19;99876.50;;;26.36;89.35
49459;BME280;35354;51.296;16.924;2022-08-25T11:04:43;99842.47;;;25.98;86.64
49459;BME280;35354;51.296;16.924;2022-08-25T11:07:32;99852.00;;;26.08;85.94
49459;BME280;35354;51.296;16.924;2022-08-25T11:10:05;99849.47;;;26.07;86.90
49459;BME280;35354;51.296;16.924;2022-08-25T11:12:40;99844.31;;;25.97;87.27
49459;BME280;35354;51.296;16.924;2022-08-25T11:15:21;99836.13;;;25.91;86.67
49459;BME280;35354;51.296;16.924;2022-08-25T11:17:54;99834.44;;;25.90;88.53
49459;BME280;35354;51.296;16.924;2022-08-25T11:20:25;99831.59;;;25.91;86.76
49459;BME280;35354;51.296;16.924;2022-08-25T11:23:24;99834.78;;;25.95;86.51
49459;BME280;35354;51.296;16.924;2022-08-25T11:25:56;99824.47;;;25.92;88.75
49459;BME280;35354;51.296;16.924;2022-08-25T11:28:42;99829.31;;;26.04;88.16
49459;BME280;35354;51.296;16.924;2022-08-25T11:31:13;99830.13;;;26.13;87.15
49459;BME280;35354;51.296;16.924;2022-08-25T11:33:39;99827.28;;;26.15;87.69
49459;BME280;35354;51.296;16.924;2022-08-25T11:36:32;99823.47;;;26.17;87.96
49459;BME280;35354;51.296;16.924;2022-08-25T11:39:17;99815.44;;;26.17;88.64
49459;BME280;35354;51.296;16.924;2022-08-25T11:50:27;99816.94;;;26.28;86.60
49459;BME280;35354;51.296;16.924;2022-08-25T11:52:55;99807.56;;;26.32;87.32
49459;BME280;35354;51.296;16.924;2022-08-25T12:00:41;99804.56;;;26.43;88.12
49459;BME280;35354;51.296;16.924;2022-08-25T12:06:19;99805.19;;;26.70;87.35
49459;BME280;35354;51.296;16.924;2022-08-25T12:09:15;99801.78;;;26.84;88.44
49459;BME280;35354;51.296;16.924;2022-08-25T12:11:44;99797.09;;;26.94;87.54
49459;BME280;35354;51.296;16.924;2022-08-25T12:30:22;99811.03;;;26.65;88.91
49459;BME280;35354;51.296;16.924;2022-08-25T12:35:38;99789.50;;;26.67;89.16
49459;BME280;35354;51.296;16.924;2022-08-25T12:38:16;99796.13;;;26.79;87.73
49459;BME280;35354;51.296;16.924;2022-08-25T12:45:45;99795.56;;;27.00;82.90
49459;BME280;35354;51.296;16.924;2022-08-25T12:50:58;99784.06;;;26.91;83.00
49459;BME280;35354;51.296;16.924;2022-08-25T12:56:04;99784.94;;;26.83;82.69
49459;BME280;35354;51.296;16.924;2022-08-25T12:58:47;99780.41;;;26.84;83.69
49459;BME280;35354;51.296;16.924;2022-08-25T13:01:21;99783.56;;;26.87;83.74
49459;BME280;35354;51.296;16.924;2022-08-25T13:10:10;99779.34;;;27.01;82.60
49459;BME280;35354;51.296;16.924;2022-08-25T13:15:26;99772.16;;;27.02;83.15
49459;BME280;35354;51.296;16.924;2022-08-25T13:17:52;99759.97;;;26.99;82.55
49459;BME280;35354;51.296;16.924;2022-08-25T13:20:23;99768.13;;;27.14;82.16
49459;BME280;35354;51.296;16.924;2022-08-25T13:22:51;99762.25;;;27.19;81.13
49459;BME280;35354;51.296;16.924;2022-08-25T13:25:21;99756.06;;;27.18;81.91
49459;BME280;35354;51.296;16.924;2022-08-25T13:27:52;99733.38;;;27.06;82.06
49459;BME280;35354;51.296;16.924;2022-08-25T13:30:26;99758.91;;;27.17;81.29
49459;BME280;35354;51.296;16.924;2022-08-25T13:32:52;99753.56;;;27.17;81.32
49459;BME280;35354;51.296;16.924;2022-08-25T13:35:36;99747.28;;;27.09;82.15
49459;BME280;35354;51.296;16.924;2022-08-25T13:38:14;99742.75;;;27.10;81.18
49459;BME280;35354;51.296;16.924;2022-08-25T13:40:40;99751.06;;;27.15;81.03
49459;BME280;35354;51.296;16.924;2022-08-25T13:43:09;99751.38;;;27.20;81.39
49459;BME280;35354;51.296;16.924;2022-08-25T13:45:44;99752.03;;;27.22;81.22
49459;BME280;35354;51.296;16.924;2022-08-25T13:48:11;99753.84;;;27.22;81.15
49459;BME280;35354;51.296;16.924;2022-08-25T13:50:40;99740.91;;;27.10;80.70
49459;BME280;35354;51.296;16.924;2022-08-25T13:53:12;99742.03;;;27.16;80.89
49459;BME280;35354;51.296;16.924;2022-08-25T13:58:30;99742.47;;;27.28;81.33
49459;BME280;35354;51.296;16.924;2022-08-25T14:03:40;99739.44;;;27.31;81.40
49459;BME280;35354;51.296;16.924;2022-08-25T14:08:40;99716.25;;;27.23;82.82
49459;BME280;35354;51.296;16.924;2022-08-25T14:11:27;99718.59;;;27.26;82.94
49459;BME280;35354;51.296;16.924;2022-08-25T14:14:07;99727.16;;;27.45;83.55
49459;BME280;35354;51.296;16.924;2022-08-25T14:16:37;99724.41;;;27.53;82.99
49459;BME280;35354;51.296;16.924;2022-08-25T14:19:02;99712.75;;;27.46;82.75
49459;BME280;35354;51.296;16.924;2022-08-25T14:21:30;99726.59;;;27.49;83.50
49459;BME280;35354;51.296;16.924;2022-08-25T14:23:57;99714.00;;;27.35;82.89
49459;BME280;35354;51.296;16.924;2022-08-25T14:26:24;99714.06;;;27.27;83.54
49459;BME280;35354;51.296;16.924;2022-08-25T14:28:49;99716.41;;;27.22;84.38
49459;BME280;35354;51.296;16.924;2022-08-25T14:31:35;99710.28;;;27.13;84.78
49459;BME280;35354;51.296;16.924;2022-08-25T14:34:06;99708.28;;;27.15;85.51
49459;BME280;35354;51.296;16.924;2022-08-25T14:36:34;99711.56;;;27.25;85.22
49459;BME280;35354;51.296;16.924;2022-08-25T14:39:00;99702.78;;;27.40;85.34